sensor_id;sensor_type;location;lat;lon;timestamp;P1;durP1;ratioP1;P2;durP2;ratioP2
19739;SDS011;10027;51.066;13.768;2023-09-19T00:01:47;3.27;;;2.53;;
19739;SDS011;10027;51.066;13.768;2023-09-19T00:04:14;3.27;;;2.30;;
19739;SDS011;10027;51.066;13.768;2023-09-19T00:06:41;2.40;;;2.13;;
19739;SDS011;10027;51.066;13.768;2023-09-19T00:09:10;3.10;;;2.50;;
19739;SDS011;10027;51.066;13.768;2023-09-19T00:11:37;3.37;;;2.37;;
19739;SDS011;10027;51.066;13.768;2023-09-19T00:14:05;4.67;;;2.07;;
19739;SDS011;10027;51.066;13.768;2023-09-19T00:16:35;2.87;;;2.37;;
19739;SDS011;10027;51.066;13.768;2023-09-19T00:19:02;3.00;;;2.60;;
19739;SDS011;10027;51.066;13.768;2023-09-19T00:21:31;3.37;;;2.57;;
19739;SDS011;10027;51.066;13.768;2023-09-19T00:23:58;5.77;;;2.53;;
19739;SDS011;10027;51.066;13.768;2023-09-19T00:26:26;3.17;;;2.60;;
19739;SDS011;10027;51.066;13.768;2023-09-19T00:28:56;3.97;;;2.60;;
19739;SDS011;10027;51.066;13.768;2023-09-19T00:31:23;2.97;;;2.60;;
19739;SDS011;10027;51.066;13.768;2023-09-19T00:33:51;5.07;;;2.53;;
19739;SDS011;10027;51.066;13.768;2023-09-19T00:36:19;6.37;;;2.67;;
19739;SDS011;10027;51.066;13.768;2023-09-19T00:38:46;5.23;;;2.80;;
19739;SDS011;10027;51.066;13.768;2023-09-19T00:41:14;4.13;;;2.77;;
19739;SDS011;10027;51.066;13.768;2023-09-19T00:43:41;5.63;;;2.83;;
19739;SDS011;10027;51.066;13.768;2023-09-19T00:46:09;4.97;;;2.70;;
19739;SDS011;10027;51.066;13.768;2023-09-19T00:48:40;3.87;;;3.03;;
19739;SDS011;10027;51.066;13.768;2023-09-19T00:51:10;3.03;;;2.60;;
19739;SDS011;10027;51.066;13.768;2023-09-19T00:53:37;3.10;;;2.30;;
19739;SDS011;10027;51.066;13.768;2023-09-19T00:56:05;5.23;;;2.80;;
19739;SDS011;10027;51.066;13.768;2023-09-19T00:58:33;4.00;;;2.70;;
19739;SDS011;10027;51.066;13.768;2023-09-19T01:01:01;4.97;;;2.83;;
19739;SDS011;10027;51.066;13.768;2023-09-19T01:03:33;3.00;;;2.50;;
19739;SDS011;10027;51.066;13.768;2023-09-19T01:06:01;4.57;;;3.03;;
19739;SDS011;10027;51.066;13.768;2023-09-19T01:08:28;6.30;;;2.83;;
19739;SDS011;10027;51.066;13.768;2023-09-19T01:10:58;3.90;;;2.40;;
19739;SDS011;10027;51.066;13.768;2023-09-19T01:13:31;3.67;;;2.60;;
19739;SDS011;10027;51.066;13.768;2023-09-19T01:16:35;4.30;;;2.47;;
19739;SDS011;10027;51.066;13.768;2023-09-19T01:18:58;3.87;;;2.83;;
19739;SDS011;10027;51.066;13.768;2023-09-19T01:29:23;4.87;;;2.90;;
19739;SDS011;10027;51.066;13.768;2023-09-19T01:31:57;4.70;;;3.13;;
19739;SDS011;10027;51.066;13.768;2023-09-19T01:34:49;4.53;;;3.30;;
19739;SDS011;10027;51.066;13.768;2023-09-19T01:37:16;5.57;;;3.53;;
19739;SDS011;10027;51.066;13.768;2023-09-19T01:39:47;5.20;;;3.13;;
19739;SDS011;10027;51.066;13.768;2023-09-19T01:42:21;4.67;;;3.10;;
19739;SDS011;10027;51.066;13.768;2023-09-19T01:44:54;5.10;;;3.20;;
19739;SDS011;10027;51.066;13.768;2023-09-19T01:50:15;4.60;;;3.27;;
19739;SDS011;10027;51.066;13.768;2023-09-19T01:52:42;5.03;;;3.50;;
19739;SDS011;10027;51.066;13.768;2023-09-19T01:55:13;4.03;;;3.20;;
19739;SDS011;10027;51.066;13.768;2023-09-19T02:00:10;4.80;;;3.30;;
19739;SDS011;10027;51.066;13.768;2023-09-19T02:02:43;5.67;;;3.10;;
19739;SDS011;10027;51.066;13.768;2023-09-19T02:05:11;5.00;;;3.10;;
19739;SDS011;10027;51.066;13.768;2023-09-19T02:07:39;3.87;;;2.87;;
19739;SDS011;10027;51.066;13.768;2023-09-19T02:10:06;4.33;;;2.97;;
19739;SDS011;10027;51.066;13.768;2023-09-19T02:12:36;3.57;;;2.63;;
19739;SDS011;10027;51.066;13.768;2023-09-19T02:15:04;3.80;;;3.30;;
19739;SDS011;10027;51.066;13.768;2023-09-19T02:17:33;3.70;;;2.93;;
19739;SDS011;10027;51.066;13.768;2023-09-19T02:20:00;4.07;;;3.00;;
19739;SDS011;10027;51.066;13.768;2023-09-19T02:22:28;4.53;;;2.87;;
19739;SDS011;10027;51.066;13.768;2023-09-19T02:24:55;4.13;;;2.83;;
19739;SDS011;10027;51.066;13.768;2023-09-19T02:27:26;4.20;;;2.60;;
19739;SDS011;10027;51.066;13.768;2023-09-19T02:29:54;4.20;;;2.57;;
19739;SDS011;10027;51.066;13.768;2023-09-19T02:32:21;4.43;;;2.77;;
19739;SDS011;10027;51.066;13.768;2023-09-19T02:34:49;4.90;;;2.77;;
19739;SDS011;10027;51.066;13.768;2023-09-19T02:37:18;5.20;;;2.90;;
19739;SDS011;10027;51.066;13.768;2023-09-19T02:39:45;4.00;;;2.60;;
19739;SDS011;10027;51.066;13.768;2023-09-19T02:42:12;3.53;;;2.47;;
19739;SDS011;10027;51.066;13.768;2023-09-19T02:44:40;3.27;;;2.47;;
19739;SDS011;10027;51.066;13.768;2023-09-19T02:47:07;5.73;;;2.20;;
19739;SDS011;10027;51.066;13.768;2023-09-19T02:49:35;4.30;;;2.90;;
19739;SDS011;10027;51.066;13.768;2023-09-19T02:52:03;4.90;;;3.00;;
19739;SDS011;10027;51.066;13.768;2023-09-19T02:54:30;3.83;;;3.00;;
19739;SDS011;10027;51.066;13.768;2023-09-19T02:56:57;4.37;;;3.10;;
19739;SDS011;10027;51.066;13.768;2023-09-19T02:59:25;3.03;;;2.57;;
19739;SDS011;10027;51.066;13.768;2023-09-19T03:01:54;4.23;;;3.17;;
19739;SDS011;10027;51.066;13.768;2023-09-19T03:04:22;3.03;;;2.53;;
19739;SDS011;10027;51.066;13.768;2023-09-19T03:06:49;3.40;;;2.70;;
19739;SDS011;10027;51.066;13.768;2023-09-19T03:09:17;3.40;;;2.67;;
19739;SDS011;10027;51.066;13.768;2023-09-19T03:11:45;3.50;;;2.23;;
19739;SDS011;10027;51.066;13.768;2023-09-19T03:14:13;5.87;;;2.50;;
19739;SDS011;10027;51.066;13.768;2023-09-19T03:16:42;3.17;;;2.27;;
19739;SDS011;10027;51.066;13.768;2023-09-19T03:19:11;1.83;;;1.63;;
19739;SDS011;10027;51.066;13.768;2023-09-19T03:21:38;1.57;;;1.30;;
19739;SDS011;10027;51.066;13.768;2023-09-19T03:24:05;2.33;;;1.33;;
19739;SDS011;10027;51.066;13.768;2023-09-19T03:26:33;2.13;;;1.10;;
19739;SDS011;10027;51.066;13.768;2023-09-19T03:29:03;2.63;;;1.23;;
19739;SDS011;10027;51.066;13.768;2023-09-19T03:31:32;1.20;;;1.10;;
19739;SDS011;10027;51.066;13.768;2023-09-19T03:34:00;3.20;;;1.30;;
19739;SDS011;10027;51.066;13.768;2023-09-19T03:36:28;2.53;;;1.13;;
19739;SDS011;10027;51.066;13.768;2023-09-19T03:38:55;1.10;;;1.00;;
19739;SDS011;10027;51.066;13.768;2023-09-19T03:41:23;3.77;;;1.17;;
19739;SDS011;10027;51.066;13.768;2023-09-19T03:43:50;4.33;;;1.17;;
19739;SDS011;10027;51.066;13.768;2023-09-19T03:46:17;2.10;;;1.67;;
19739;SDS011;10027;51.066;13.768;2023-09-19T03:48:44;1.40;;;1.10;;
19739;SDS011;10027;51.066;13.768;2023-09-19T03:51:12;1.37;;;1.00;;
19739;SDS011;10027;51.066;13.768;2023-09-19T03:53:39;1.80;;;1.10;;
19739;SDS011;10027;51.066;13.768;2023-09-19T03:56:07;1.50;;;1.10;;
19739;SDS011;10027;51.066;13.768;2023-09-19T03:58:34;1.73;;;1.00;;
19739;SDS011;10027;51.066;13.768;2023-09-19T04:01:05;2.10;;;1.33;;
19739;SDS011;10027;51.066;13.768;2023-09-19T04:03:33;1.30;;;0.90;;
19739;SDS011;10027;51.066;13.768;2023-09-19T04:06:12;1.70;;;1.13;;
19739;SDS011;10027;51.066;13.768;2023-09-19T04:08:39;1.03;;;0.90;;
19739;SDS011;10027;51.066;13.768;2023-09-19T04:11:07;1.03;;;0.97;;
19739;SDS011;10027;51.066;13.768;2023-09-19T04:13:34;1.80;;;1.00;;
19739;SDS011;10027;51.066;13.768;2023-09-19T04:16:02;3.20;;;1.17;;
19739;SDS011;10027;51.066;13.768;2023-09-19T04:18:36;1.73;;;1.37;;
19739;SDS011;10027;51.066;13.768;2023-09-19T04:21:04;1.50;;;1.10;;
19739;SDS011;10027;51.066;13.768;2023-09-19T04:23:32;1.27;;;0.90;;
19739;SDS011;10027;51.066;13.768;2023-09-19T04:26:00;2.50;;;1.20;;
19739;SDS011;10027;51.066;13.768;2023-09-19T04:28:27;2.77;;;1.30;;
19739;SDS011;10027;51.066;13.768;2023-09-19T04:30:54;2.27;;;1.00;;
19739;SDS011;10027;51.066;13.768;2023-09-19T04:33:22;2.20;;;1.10;;
19739;SDS011;10027;51.066;13.768;2023-09-19T04:35:49;2.43;;;1.00;;
19739;SDS011;10027;51.066;13.768;2023-09-19T04:38:20;1.30;;;1.20;;
19739;SDS011;10027;51.066;13.768;2023-09-19T04:40:47;1.37;;;0.90;;
19739;SDS011;10027;51.066;13.768;2023-09-19T04:43:14;2.73;;;1.00;;
19739;SDS011;10027;51.066;13.768;2023-09-19T04:45:42;1.47;;;1.00;;
19739;SDS011;10027;51.066;13.768;2023-09-19T04:48:09;1.67;;;1.03;;
19739;SDS011;10027;51.066;13.768;2023-09-19T04:50:37;2.17;;;1.20;;
19739;SDS011;10027;51.066;13.768;2023-09-19T04:53:04;3.40;;;1.37;;
19739;SDS011;10027;51.066;13.768;2023-09-19T04:55:33;1.03;;;0.93;;
19739;SDS011;10027;51.066;13.768;2023-09-19T04:58:00;1.77;;;1.27;;
19739;SDS011;10027;51.066;13.768;2023-09-19T05:00:28;1.20;;;0.90;;
19739;SDS011;10027;51.066;13.768;2023-09-19T05:02:57;1.33;;;1.10;;
19739;SDS011;10027;51.066;13.768;2023-09-19T05:05:24;2.70;;;1.30;;
19739;SDS011;10027;51.066;13.768;2023-09-19T05:07:52;1.30;;;1.00;;
19739;SDS011;10027;51.066;13.768;2023-09-19T05:10:20;2.03;;;1.43;;
19739;SDS011;10027;51.066;13.768;2023-09-19T05:12:48;1.70;;;1.10;;
19739;SDS011;10027;51.066;13.768;2023-09-19T05:15:18;2.37;;;1.20;;
19739;SDS011;10027;51.066;13.768;2023-09-19T05:17:52;1.60;;;1.37;;
19739;SDS011;10027;51.066;13.768;2023-09-19T05:20:24;1.20;;;1.07;;
19739;SDS011;10027;51.066;13.768;2023-09-19T05:23:05;1.73;;;1.47;;
19739;SDS011;10027;51.066;13.768;2023-09-19T05:25:38;1.80;;;1.50;;
19739;SDS011;10027;51.066;13.768;2023-09-19T05:30:33;2.40;;;1.60;;
19739;SDS011;10027;51.066;13.768;2023-09-19T05:33:02;2.90;;;1.40;;
19739;SDS011;10027;51.066;13.768;2023-09-19T05:35:31;3.60;;;1.30;;
19739;SDS011;10027;51.066;13.768;2023-09-19T05:37:58;2.00;;;1.00;;
19739;SDS011;10027;51.066;13.768;2023-09-19T05:40:26;4.13;;;1.30;;
19739;SDS011;10027;51.066;13.768;2023-09-19T05:42:53;1.17;;;1.07;;
19739;SDS011;10027;51.066;13.768;2023-09-19T05:45:20;5.20;;;1.30;;
19739;SDS011;10027;51.066;13.768;2023-09-19T05:47:51;1.73;;;1.10;;
19739;SDS011;10027;51.066;13.768;2023-09-19T05:50:22;1.83;;;1.20;;
19739;SDS011;10027;51.066;13.768;2023-09-19T05:52:51;1.97;;;1.13;;
19739;SDS011;10027;51.066;13.768;2023-09-19T05:55:19;2.03;;;1.17;;
19739;SDS011;10027;51.066;13.768;2023-09-19T05:57:50;1.70;;;1.20;;
19739;SDS011;10027;51.066;13.768;2023-09-19T06:00:21;2.00;;;1.00;;
19739;SDS011;10027;51.066;13.768;2023-09-19T06:02:52;2.77;;;1.40;;
19739;SDS011;10027;51.066;13.768;2023-09-19T06:05:20;1.57;;;1.20;;
19739;SDS011;10027;51.066;13.768;2023-09-19T06:07:48;1.33;;;1.10;;
19739;SDS011;10027;51.066;13.768;2023-09-19T06:10:16;1.83;;;1.30;;
19739;SDS011;10027;51.066;13.768;2023-09-19T06:12:44;1.67;;;1.20;;
19739;SDS011;10027;51.066;13.768;2023-09-19T06:15:14;2.37;;;1.47;;
19739;SDS011;10027;51.066;13.768;2023-09-19T06:17:50;3.03;;;1.37;;
19739;SDS011;10027;51.066;13.768;2023-09-19T06:20:17;3.80;;;1.37;;
19739;SDS011;10027;51.066;13.768;2023-09-19T06:22:46;1.13;;;1.03;;
19739;SDS011;10027;51.066;13.768;2023-09-19T06:25:14;4.90;;;1.50;;
19739;SDS011;10027;51.066;13.768;2023-09-19T06:27:50;1.70;;;1.10;;
19739;SDS011;10027;51.066;13.768;2023-09-19T06:30:22;1.97;;;1.30;;
19739;SDS011;10027;51.066;13.768;2023-09-19T06:33:00;1.73;;;1.17;;
19739;SDS011;10027;51.066;13.768;2023-09-19T06:35:31;1.80;;;0.93;;
19739;SDS011;10027;51.066;13.768;2023-09-19T06:38:02;1.30;;;1.20;;
19739;SDS011;10027;51.066;13.768;2023-09-19T06:40:30;2.43;;;1.23;;
19739;SDS011;10027;51.066;13.768;2023-09-19T06:42:57;2.20;;;1.10;;
19739;SDS011;10027;51.066;13.768;2023-09-19T06:45:25;1.83;;;1.20;;
19739;SDS011;10027;51.066;13.768;2023-09-19T06:47:53;1.20;;;1.10;;
19739;SDS011;10027;51.066;13.768;2023-09-19T06:50:24;1.87;;;1.10;;
19739;SDS011;10027;51.066;13.768;2023-09-19T06:52:52;3.73;;;1.10;;
19739;SDS011;10027;51.066;13.768;2023-09-19T06:55:21;2.13;;;1.13;;
19739;SDS011;10027;51.066;13.768;2023-09-19T06:57:51;1.27;;;1.00;;
19739;SDS011;10027;51.066;13.768;2023-09-19T07:00:21;1.60;;;1.10;;
19739;SDS011;10027;51.066;13.768;2023-09-19T07:02:56;1.73;;;1.10;;
19739;SDS011;10027;51.066;13.768;2023-09-19T07:05:28;2.17;;;1.10;;
19739;SDS011;10027;51.066;13.768;2023-09-19T07:07:55;1.70;;;1.07;;
19739;SDS011;10027;51.066;13.768;2023-09-19T07:10:22;1.30;;;1.20;;
19739;SDS011;10027;51.066;13.768;2023-09-19T07:12:57;0.90;;;0.80;;
19739;SDS011;10027;51.066;13.768;2023-09-19T07:15:25;1.00;;;0.90;;
19739;SDS011;10027;51.066;13.768;2023-09-19T07:17:52;1.90;;;0.93;;
19739;SDS011;10027;51.066;13.768;2023-09-19T07:20:20;1.00;;;0.90;;
19739;SDS011;10027;51.066;13.768;2023-09-19T07:22:48;1.10;;;1.00;;
19739;SDS011;10027;51.066;13.768;2023-09-19T07:25:17;1.20;;;0.97;;
19739;SDS011;10027;51.066;13.768;2023-09-19T07:27:44;2.97;;;0.97;;
19739;SDS011;10027;51.066;13.768;2023-09-19T07:30:12;1.50;;;1.00;;
19739;SDS011;10027;51.066;13.768;2023-09-19T07:32:41;0.73;;;0.73;;
19739;SDS011;10027;51.066;13.768;2023-09-19T07:35:08;1.47;;;0.73;;
19739;SDS011;10027;51.066;13.768;2023-09-19T07:37:35;4.13;;;0.80;;
19739;SDS011;10027;51.066;13.768;2023-09-19T07:40:03;1.63;;;0.80;;
19739;SDS011;10027;51.066;13.768;2023-09-19T07:42:33;1.33;;;0.70;;
19739;SDS011;10027;51.066;13.768;2023-09-19T07:45:01;2.40;;;0.90;;
19739;SDS011;10027;51.066;13.768;2023-09-19T07:47:29;1.07;;;0.97;;
19739;SDS011;10027;51.066;13.768;2023-09-19T07:49:58;1.10;;;0.90;;
19739;SDS011;10027;51.066;13.768;2023-09-19T07:52:28;1.93;;;0.83;;
19739;SDS011;10027;51.066;13.768;2023-09-19T07:54:57;2.00;;;0.87;;
19739;SDS011;10027;51.066;13.768;2023-09-19T07:57:24;1.50;;;0.73;;
19739;SDS011;10027;51.066;13.768;2023-09-19T07:59:51;1.67;;;0.93;;
19739;SDS011;10027;51.066;13.768;2023-09-19T08:02:18;2.33;;;0.70;;
19739;SDS011;10027;51.066;13.768;2023-09-19T08:04:45;1.20;;;0.85;;
19739;SDS011;10027;51.066;13.768;2023-09-19T08:07:13;1.35;;;0.80;;
19739;SDS011;10027;51.066;13.768;2023-09-19T08:09:40;1.60;;;0.73;;
19739;SDS011;10027;51.066;13.768;2023-09-19T08:12:12;1.83;;;0.70;;
19739;SDS011;10027;51.066;13.768;2023-09-19T08:14:41;1.98;;;0.55;;
19739;SDS011;10027;51.066;13.768;2023-09-19T08:17:08;0.70;;;0.70;;
19739;SDS011;10027;51.066;13.768;2023-09-19T08:19:36;1.17;;;0.57;;
19739;SDS011;10027;51.066;13.768;2023-09-19T08:22:07;0.95;;;0.70;;
19739;SDS011;10027;51.066;13.768;2023-09-19T08:24:36;1.10;;;0.60;;
19739;SDS011;10027;51.066;13.768;2023-09-19T08:27:04;1.33;;;0.70;;
19739;SDS011;10027;51.066;13.768;2023-09-19T08:29:35;1.42;;;0.82;;
19739;SDS011;10027;51.066;13.768;2023-09-19T08:32:02;1.40;;;0.90;;
19739;SDS011;10027;51.066;13.768;2023-09-19T08:34:30;1.38;;;0.68;;
19739;SDS011;10027;51.066;13.768;2023-09-19T08:37:00;0.63;;;0.63;;
19739;SDS011;10027;51.066;13.768;2023-09-19T08:39:27;0.93;;;0.70;;
19739;SDS011;10027;51.066;13.768;2023-09-19T08:41:57;0.90;;;0.90;;
19739;SDS011;10027;51.066;13.768;2023-09-19T08:44:28;1.40;;;0.70;;
19739;SDS011;10027;51.066;13.768;2023-09-19T08:47:15;1.53;;;0.83;;
19739;SDS011;10027;51.066;13.768;2023-09-19T08:52:19;1.10;;;1.00;;
19739;SDS011;10027;51.066;13.768;2023-09-19T08:54:49;1.07;;;0.77;;
19739;SDS011;10027;51.066;13.768;2023-09-19T08:57:21;1.50;;;0.73;;
19739;SDS011;10027;51.066;13.768;2023-09-19T08:59:49;1.30;;;0.70;;
19739;SDS011;10027;51.066;13.768;2023-09-19T09:02:16;2.10;;;0.83;;
19739;SDS011;10027;51.066;13.768;2023-09-19T09:04:47;0.60;;;0.60;;
19739;SDS011;10027;51.066;13.768;2023-09-19T09:07:16;0.77;;;0.63;;
19739;SDS011;10027;51.066;13.768;2023-09-19T09:09:45;1.23;;;0.90;;
19739;SDS011;10027;51.066;13.768;2023-09-19T09:12:13;1.53;;;1.00;;
19739;SDS011;10027;51.066;13.768;2023-09-19T09:14:44;0.97;;;0.77;;
19739;SDS011;10027;51.066;13.768;2023-09-19T09:17:12;1.60;;;0.80;;
19739;SDS011;10027;51.066;13.768;2023-09-19T09:19:39;2.87;;;0.90;;
19739;SDS011;10027;51.066;13.768;2023-09-19T09:22:10;2.33;;;0.70;;
19739;SDS011;10027;51.066;13.768;2023-09-19T09:24:50;1.00;;;0.83;;
19739;SDS011;10027;51.066;13.768;2023-09-19T09:27:20;1.30;;;0.73;;
19739;SDS011;10027;51.066;13.768;2023-09-19T09:29:50;1.20;;;0.80;;
19739;SDS011;10027;51.066;13.768;2023-09-19T09:34:52;2.30;;;0.90;;
19739;SDS011;10027;51.066;13.768;2023-09-19T09:37:23;0.80;;;0.77;;
19739;SDS011;10027;51.066;13.768;2023-09-19T09:39:59;0.80;;;0.60;;
19739;SDS011;10027;51.066;13.768;2023-09-19T09:42:45;1.47;;;0.90;;
19739;SDS011;10027;51.066;13.768;2023-09-19T09:45:19;1.77;;;1.00;;
19739;SDS011;10027;51.066;13.768;2023-09-19T09:47:59;1.73;;;0.77;;
19739;SDS011;10027;51.066;13.768;2023-09-19T09:50:33;1.30;;;0.60;;
19739;SDS011;10027;51.066;13.768;2023-09-19T09:53:23;1.27;;;0.80;;
19739;SDS011;10027;51.066;13.768;2023-09-19T09:56:04;0.97;;;0.80;;
19739;SDS011;10027;51.066;13.768;2023-09-19T09:58:35;2.10;;;0.70;;
19739;SDS011;10027;51.066;13.768;2023-09-19T10:01:04;1.70;;;0.90;;
19739;SDS011;10027;51.066;13.768;2023-09-19T10:03:41;0.87;;;0.70;;
19739;SDS011;10027;51.066;13.768;2023-09-19T10:06:16;1.57;;;0.67;;
19739;SDS011;10027;51.066;13.768;2023-09-19T10:11:47;2.27;;;0.80;;
19739;SDS011;10027;51.066;13.768;2023-09-19T10:14:24;2.50;;;0.90;;
19739;SDS011;10027;51.066;13.768;2023-09-19T10:16:53;1.57;;;0.90;;
19739;SDS011;10027;51.066;13.768;2023-09-19T10:19:30;1.37;;;0.90;;
19739;SDS011;10027;51.066;13.768;2023-09-19T10:22:01;2.37;;;0.90;;
19739;SDS011;10027;51.066;13.768;2023-09-19T10:24:28;1.47;;;1.00;;
19739;SDS011;10027;51.066;13.768;2023-09-19T10:26:59;1.77;;;0.70;;
19739;SDS011;10027;51.066;13.768;2023-09-19T10:29:27;1.20;;;0.80;;
19739;SDS011;10027;51.066;13.768;2023-09-19T10:31:58;0.63;;;0.60;;
19739;SDS011;10027;51.066;13.768;2023-09-19T10:34:25;1.40;;;1.00;;
19739;SDS011;10027;51.066;13.768;2023-09-19T10:36:52;1.40;;;1.00;;
19739;SDS011;10027;51.066;13.768;2023-09-19T10:39:19;0.80;;;0.70;;
19739;SDS011;10027;51.066;13.768;2023-09-19T10:41:50;0.73;;;0.60;;
19739;SDS011;10027;51.066;13.768;2023-09-19T10:44:24;1.13;;;0.70;;
19739;SDS011;10027;51.066;13.768;2023-09-19T10:46:54;1.10;;;0.77;;
19739;SDS011;10027;51.066;13.768;2023-09-19T10:49:23;1.43;;;0.90;;
19739;SDS011;10027;51.066;13.768;2023-09-19T10:51:54;1.87;;;0.80;;
19739;SDS011;10027;51.066;13.768;2023-09-19T10:54:25;1.43;;;0.83;;
19739;SDS011;10027;51.066;13.768;2023-09-19T10:56:54;0.80;;;0.80;;
19739;SDS011;10027;51.066;13.768;2023-09-19T10:59:25;1.47;;;0.90;;
19739;SDS011;10027;51.066;13.768;2023-09-19T11:02:14;2.00;;;1.00;;
19739;SDS011;10027;51.066;13.768;2023-09-19T11:04:44;1.23;;;0.83;;
19739;SDS011;10027;51.066;13.768;2023-09-19T11:07:14;2.53;;;0.90;;
19739;SDS011;10027;51.066;13.768;2023-09-19T11:15:02;1.73;;;1.07;;
19739;SDS011;10027;51.066;13.768;2023-09-19T11:17:35;2.13;;;1.10;;
19739;SDS011;10027;51.066;13.768;2023-09-19T11:28:28;2.77;;;1.37;;
19739;SDS011;10027;51.066;13.768;2023-09-19T11:30:57;1.20;;;0.90;;
19739;SDS011;10027;51.066;13.768;2023-09-19T11:33:25;2.13;;;1.10;;
19739;SDS011;10027;51.066;13.768;2023-09-19T11:46:27;1.80;;;1.20;;
19739;SDS011;10027;51.066;13.768;2023-09-19T11:48:55;1.70;;;1.20;;
19739;SDS011;10027;51.066;13.768;2023-09-19T11:51:40;1.60;;;1.23;;
19739;SDS011;10027;51.066;13.768;2023-09-19T11:54:13;1.77;;;1.30;;
19739;SDS011;10027;51.066;13.768;2023-09-19T11:56:51;2.73;;;1.30;;
19739;SDS011;10027;51.066;13.768;2023-09-19T11:59:31;1.97;;;1.30;;
19739;SDS011;10027;51.066;13.768;2023-09-19T12:07:08;1.90;;;0.80;;
19739;SDS011;10027;51.066;13.768;2023-09-19T12:09:43;1.87;;;1.20;;
19739;SDS011;10027;51.066;13.768;2023-09-19T12:12:28;1.07;;;0.90;;
19739;SDS011;10027;51.066;13.768;2023-09-19T12:14:59;1.10;;;1.00;;
19739;SDS011;10027;51.066;13.768;2023-09-19T12:17:36;2.60;;;1.10;;
19739;SDS011;10027;51.066;13.768;2023-09-19T12:20:03;2.30;;;1.00;;
19739;SDS011;10027;51.066;13.768;2023-09-19T12:22:44;2.90;;;0.90;;
19739;SDS011;10027;51.066;13.768;2023-09-19T12:25:12;1.90;;;1.10;;
19739;SDS011;10027;51.066;13.768;2023-09-19T12:27:48;1.47;;;1.00;;
19739;SDS011;10027;51.066;13.768;2023-09-19T12:30:27;1.40;;;1.07;;
19739;SDS011;10027;51.066;13.768;2023-09-19T12:32:54;1.77;;;0.90;;
19739;SDS011;10027;51.066;13.768;2023-09-19T12:35:29;2.20;;;1.07;;
19739;SDS011;10027;51.066;13.768;2023-09-19T12:37:57;2.07;;;1.00;;
19739;SDS011;10027;51.066;13.768;2023-09-19T12:40:24;1.63;;;1.13;;
19739;SDS011;10027;51.066;13.768;2023-09-19T12:42:56;3.03;;;1.30;;
19739;SDS011;10027;51.066;13.768;2023-09-19T12:45:24;2.90;;;0.93;;
19739;SDS011;10027;51.066;13.768;2023-09-19T12:50:58;2.70;;;0.80;;
19739;SDS011;10027;51.066;13.768;2023-09-19T12:53:26;1.17;;;0.80;;
19739;SDS011;10027;51.066;13.768;2023-09-19T12:55:59;1.13;;;0.80;;
19739;SDS011;10027;51.066;13.768;2023-09-19T12:58:27;1.67;;;1.00;;
19739;SDS011;10027;51.066;13.768;2023-09-19T13:00:56;1.20;;;1.00;;
19739;SDS011;10027;51.066;13.768;2023-09-19T13:05:52;1.77;;;0.90;;
19739;SDS011;10027;51.066;13.768;2023-09-19T13:08:29;1.37;;;0.83;;
19739;SDS011;10027;51.066;13.768;2023-09-19T13:11:12;1.70;;;1.13;;
19739;SDS011;10027;51.066;13.768;2023-09-19T13:16:27;1.37;;;1.00;;
19739;SDS011;10027;51.066;13.768;2023-09-19T13:18:55;1.47;;;0.77;;
19739;SDS011;10027;51.066;13.768;2023-09-19T13:21:29;1.43;;;0.90;;
19739;SDS011;10027;51.066;13.768;2023-09-19T13:24:18;3.23;;;0.90;;
19739;SDS011;10027;51.066;13.768;2023-09-19T13:26:45;2.13;;;0.80;;
19739;SDS011;10027;51.066;13.768;2023-09-19T13:29:13;1.63;;;1.00;;
19739;SDS011;10027;51.066;13.768;2023-09-19T13:31:47;1.90;;;1.30;;
19739;SDS011;10027;51.066;13.768;2023-09-19T13:34:15;1.10;;;0.90;;
19739;SDS011;10027;51.066;13.768;2023-09-19T13:36:43;1.60;;;0.93;;
19739;SDS011;10027;51.066;13.768;2023-09-19T13:39:11;4.10;;;1.13;;
19739;SDS011;10027;51.066;13.768;2023-09-19T13:41:44;2.77;;;0.90;;
19739;SDS011;10027;51.066;13.768;2023-09-19T13:44:13;2.33;;;1.00;;
19739;SDS011;10027;51.066;13.768;2023-09-19T13:46:40;1.27;;;1.17;;
19739;SDS011;10027;51.066;13.768;2023-09-19T13:49:13;2.27;;;1.30;;
19739;SDS011;10027;51.066;13.768;2023-09-19T13:51:40;1.20;;;1.10;;
19739;SDS011;10027;51.066;13.768;2023-09-19T13:54:10;2.00;;;1.00;;
19739;SDS011;10027;51.066;13.768;2023-09-19T13:56:38;1.57;;;1.20;;
19739;SDS011;10027;51.066;13.768;2023-09-19T13:59:06;2.17;;;1.30;;
19739;SDS011;10027;51.066;13.768;2023-09-19T14:01:33;2.07;;;1.00;;
19739;SDS011;10027;51.066;13.768;2023-09-19T14:04:00;1.90;;;1.20;;
19739;SDS011;10027;51.066;13.768;2023-09-19T14:06:28;1.03;;;0.93;;
19739;SDS011;10027;51.066;13.768;2023-09-19T14:08:55;3.37;;;1.00;;
19739;SDS011;10027;51.066;13.768;2023-09-19T14:11:23;2.03;;;0.90;;
19739;SDS011;10027;51.066;13.768;2023-09-19T14:13:51;3.03;;;1.00;;
19739;SDS011;10027;51.066;13.768;2023-09-19T14:16:21;3.53;;;0.97;;
19739;SDS011;10027;51.066;13.768;2023-09-19T14:18:51;0.97;;;0.87;;
19739;SDS011;10027;51.066;13.768;2023-09-19T14:21:18;0.87;;;0.83;;
19739;SDS011;10027;51.066;13.768;2023-09-19T14:23:45;3.70;;;1.00;;
19739;SDS011;10027;51.066;13.768;2023-09-19T14:26:13;2.43;;;1.30;;
19739;SDS011;10027;51.066;13.768;2023-09-19T14:28:40;2.70;;;1.23;;
19739;SDS011;10027;51.066;13.768;2023-09-19T14:31:08;1.93;;;1.20;;
19739;SDS011;10027;51.066;13.768;2023-09-19T14:33:37;1.83;;;1.17;;
19739;SDS011;10027;51.066;13.768;2023-09-19T14:36:05;1.37;;;1.20;;
19739;SDS011;10027;51.066;13.768;2023-09-19T14:38:37;1.80;;;1.20;;
19739;SDS011;10027;51.066;13.768;2023-09-19T14:41:06;1.67;;;1.00;;
19739;SDS011;10027;51.066;13.768;2023-09-19T14:43:33;1.47;;;0.93;;
19739;SDS011;10027;51.066;13.768;2023-09-19T14:46:04;1.17;;;1.00;;
19739;SDS011;10027;51.066;13.768;2023-09-19T14:48:34;2.13;;;1.30;;
19739;SDS011;10027;51.066;13.768;2023-09-19T14:51:02;1.53;;;1.43;;
19739;SDS011;10027;51.066;13.768;2023-09-19T14:53:29;2.20;;;1.27;;
19739;SDS011;10027;51.066;13.768;2023-09-19T14:55:59;1.70;;;1.40;;
19739;SDS011;10027;51.066;13.768;2023-09-19T14:58:27;1.50;;;1.30;;
19739;SDS011;10027;51.066;13.768;2023-09-19T15:01:08;1.57;;;1.43;;
19739;SDS011;10027;51.066;13.768;2023-09-19T15:03:40;1.80;;;1.30;;
19739;SDS011;10027;51.066;13.768;2023-09-19T15:06:09;1.43;;;1.33;;
19739;SDS011;10027;51.066;13.768;2023-09-19T15:08:41;1.60;;;1.27;;
19739;SDS011;10027;51.066;13.768;2023-09-19T15:11:13;1.77;;;1.40;;
19739;SDS011;10027;51.066;13.768;2023-09-19T15:13:44;1.70;;;1.50;;
19739;SDS011;10027;51.066;13.768;2023-09-19T15:16:12;2.70;;;1.80;;
19739;SDS011;10027;51.066;13.768;2023-09-19T15:18:40;1.73;;;1.43;;
19739;SDS011;10027;51.066;13.768;2023-09-19T15:21:11;1.97;;;1.60;;
19739;SDS011;10027;51.066;13.768;2023-09-19T15:23:40;1.40;;;1.20;;
19739;SDS011;10027;51.066;13.768;2023-09-19T15:26:07;2.13;;;1.37;;
19739;SDS011;10027;51.066;13.768;2023-09-19T15:28:35;2.17;;;1.30;;
19739;SDS011;10027;51.066;13.768;2023-09-19T15:33:30;2.03;;;1.57;;
19739;SDS011;10027;51.066;13.768;2023-09-19T15:36:08;1.40;;;1.30;;
19739;SDS011;10027;51.066;13.768;2023-09-19T15:38:55;2.10;;;1.40;;
19739;SDS011;10027;51.066;13.768;2023-09-19T15:41:24;1.50;;;1.40;;
19739;SDS011;10027;51.066;13.768;2023-09-19T15:43:51;1.60;;;1.50;;
19739;SDS011;10027;51.066;13.768;2023-09-19T15:46:18;1.77;;;1.50;;
19739;SDS011;10027;51.066;13.768;2023-09-19T15:48:46;1.50;;;1.40;;
19739;SDS011;10027;51.066;13.768;2023-09-19T15:51:13;1.40;;;1.30;;
19739;SDS011;10027;51.066;13.768;2023-09-19T15:53:44;2.33;;;1.20;;